Flight Track Log - Related Links

Times and Time Zones

All times are in EDT time to prevent confusion due to time zone crossing. See the SWA2236 flight status page for this flight to view local times or setup timezone preferences in your user account.

Time Position Orientation Groundspeed Altitude Reporting Facility
EDT Latitude Longitude Course Direction KTS MPH feet Rate Location/Type
Sun 08:07:21 PM 30.5069 -81.6725 35° Northeast 155 178 800  Level Jacksonville Center
Sun 08:08:33 PM 30.5547 -81.6333 35° Northeast 258 297 3,000 2,165 Climbing Jacksonville Center
Sun 08:09:34 PM 30.6217 -81.6422 353° North 245 282 5,600 2,902 Climbing Jacksonville Center
Sun 08:10:35 PM 30.7011 -81.6508 355° North 286 329 8,900 2,617 Climbing Jacksonville Center
Sun 08:12:03 PM 30.8264 -81.6636 North 315 362 12,100 2,392 Climbing Jacksonville Center
Sun 08:13:03 PM 30.9244 -81.6406 11° North 335 386 14,800 2,750 Climbing Jacksonville Center
Sun 08:14:03 PM 31.0264 -81.6028 18° North 360 414 17,600 2,550 Climbing Jacksonville Center
Sun 08:15:03 PM 31.1322 -81.5650 17° North 377 434 19,900 2,300 Climbing Jacksonville Center
Sun 08:16:03 PM 31.2447 -81.5269 16° North 389 448 22,200 2,150 Climbing Jacksonville Center
Sun 08:17:03 PM 31.3569 -81.4839 18° North 409 471 24,200 2,050 Climbing Jacksonville Center
Sun 08:18:03 PM 31.4858 -81.4356 18° North 434 499 26,300 1,950 Climbing Jacksonville Center
Sun 08:19:03 PM 31.6044 -81.3947 16° North 439 505 28,100 1,750 Climbing Jacksonville Center
Sun 08:20:03 PM 31.7147 -81.3564 16° North 444 511 29,800 1,900 Climbing Jacksonville Center
Sun 08:21:03 PM 31.8453 -81.2981 21° North 454 522 31,900 2,000 Climbing Jacksonville Center
Sun 08:22:03 PM 31.9467 -81.2081 37° Northeast 454 522 33,800 1,750 Climbing Jacksonville Center
Sun 08:23:03 PM 32.0456 -81.1231 36° Northeast 440 506 35,400 1,450 Climbing Jacksonville Center
Sun 08:24:03 PM 32.1383 -81.0378 38° Northeast 450 518 36,700 1,250 Climbing Jacksonville Center
Sun 08:25:03 PM 32.2456 -80.9422 37° Northeast 444 511 37,900 1,100 Climbing Jacksonville Center
Sun 08:26:03 PM 32.3422 -80.8542 38° Northeast 438 504 38,900 550 Climbing Jacksonville Center
Sun 08:27:03 PM 32.4367 -80.7633 39° Northeast 433 498 39,000 50 Climbing Jacksonville Center
Sun 08:28:03 PM 32.5353 -80.6722 38° Northeast 439 505 39,000  Level Jacksonville Center
Sun 08:29:03 PM 32.6319 -80.5836 38° Northeast 434 499 39,000  Level Jacksonville Center
Sun 08:30:03 PM 32.7261 -80.4925 39° Northeast 434 499 39,000  Level Jacksonville Center
Sun 08:31:03 PM 32.8228 -80.4058 37° Northeast 434 499 39,000  Level Jacksonville Center
Sun 08:32:03 PM 32.9169 -80.3167 38° Northeast 434 499 39,000  Level Jacksonville Center
Sun 08:33:03 PM 33.0111 -80.2297 38° Northeast 450 518 39,000  Level Jacksonville Center
Sun 08:34:03 PM 33.1094 -80.1375 38° Northeast 455 524 39,000  Level Jacksonville Center
Sun 08:35:03 PM 33.2075 -80.0450 38° Northeast 455 524 39,000  Level Jacksonville Center
Sun 08:36:03 PM 33.3033 -79.9550 38° Northeast 449 517 39,000  Level Jacksonville Center
Sun 08:37:03 PM 33.3972 -79.8647 39° Northeast 439 505 39,000  Level Jacksonville Center
Sun 08:38:03 PM 33.4953 -79.7694 39° Northeast 439 505 39,000  Level Jacksonville Center
Sun 08:39:03 PM 33.5911 -79.6786 38° Northeast 439 505 39,000  Level Jacksonville Center
Sun 08:40:03 PM 33.6889 -79.5878 38° Northeast 439 505 39,000  Level Jacksonville Center
Sun 08:41:03 PM 33.7844 -79.4942 39° Northeast 439 505 39,000  Level Jacksonville Center
Sun 08:42:03 PM 33.8839 -79.3978 39° Northeast 431 496 39,000 -300 Level Jacksonville Center
Sun 08:43:03 PM 33.9817 -79.3089 37° Northeast 431 496 38,400 -800 Descending Jacksonville Center
Sun 08:44:03 PM 34.0789 -79.2119 40° Northeast 436 502 37,400 -584 Descending Jacksonville Center
Sun 08:45:37 PM 34.2192 -79.0778 38° Northeast 427 491 36,900 -581 Descending Washington Center
Sun 08:46:38 PM 34.3197 -78.9867 37° Northeast 437 503 35,900 -958 Descending Washington Center
Sun 08:47:36 PM 34.4261 -78.9153 29° Northeast 443 510 35,000 -458 Descending Washington Center
Sun 08:48:36 PM 34.5553 -78.8475 23° Northeast 443 510 35,000  Level Washington Center
Sun 08:49:37 PM 34.6714 -78.7917 22° Northeast 443 510 35,000  Level Washington Center
Sun 08:50:37 PM 34.7856 -78.7353 22° Northeast 443 510 35,000  Level Washington Center
Sun 08:51:38 PM 34.9019 -78.6767 22° Northeast 443 510 35,000  Level Washington Center
Sun 08:52:38 PM 35.0161 -78.6175 23° Northeast 438 504 35,000  Level Washington Center
Sun 08:53:36 PM 35.1325 -78.5583 23° Northeast 438 504 35,000  Level Washington Center
Sun 08:54:37 PM 35.2486 -78.4992 23° Northeast 438 504 35,000  Level Washington Center
Sun 08:55:38 PM 35.3731 -78.4400 21° North 454 522 35,000  Level Washington Center
Sun 08:56:36 PM 35.4769 -78.3747 27° Northeast 461 531 35,000  Level Washington Center
Sun 08:57:37 PM 35.5992 -78.3203 20° North 466 536 35,000  Level Washington Center
Sun 08:58:38 PM 35.7250 -78.2886 12° North 455 524 35,000 -496 Level Washington Center
Sun 08:59:38 PM 35.8508 -78.2647 North 448 516 34,000 -1,017 Descending Washington Center
Sun 09:00:36 PM 35.9786 -78.2383 North 453 521 33,000 -958 Descending Washington Center
Sun 09:01:37 PM 36.1047 -78.2067 11° North 453 521 32,100 -934 Descending Washington Center
Sun 09:02:38 PM 36.2250 -78.1358 25° Northeast 466 536 31,100 -992 Descending Washington Center
Sun 09:03:38 PM 36.3456 -78.0597 27° Northeast 472 543 30,100 -992 Descending Washington Center
Sun 09:04:39 PM 36.4767 -77.9736 28° Northeast 477 549 29,100 -814 Descending Washington Center
Sun 09:05:36 PM 36.5992 -77.8972 27° Northeast 482 555 28,500 -814 Descending Washington Center
Sun 09:06:37 PM 36.7239 -77.8178 27° Northeast 488 562 27,500 -984 Descending Washington Center
Sun 09:07:38 PM 36.8525 -77.7358 27° Northeast 499 574 26,500 -958 Descending Washington Center
Sun 09:08:36 PM 36.9792 -77.6561 27° Northeast 499 574 25,600 -1,008 Descending Washington Center
Sun 09:09:37 PM 37.1056 -77.5736 27° Northeast 499 574 24,500 -1,050 Descending Washington Center
Sun 09:10:36 PM 37.2300 -77.4933 27° Northeast 499 574 23,500 -750 Descending Washington Center
Sun 09:11:37 PM 37.3544 -77.4156 26° Northeast 499 574 23,000 -248 Descending Washington Center
Sun 09:12:37 PM 37.4764 -77.3400 26° Northeast 492 566 23,000  Level Washington Center
Sun 09:13:36 PM 37.6000 -77.3008 14° North 478 550 23,000  Level Washington Center
Sun 09:14:37 PM 37.7256 -77.2747 North 459 528 23,000  Level Washington Center
Sun 09:15:38 PM 37.8447 -77.2511 North 447 514 23,000 -101 Level Washington Center
Sun 09:16:36 PM 37.9681 -77.2247 10° North 442 509 22,800 -1,169 Descending Washington Center
Sun 09:17:36 PM 38.0706 -77.2033 North 435 501 20,700 -2,132 Descending Washington Center
Sun 09:18:37 PM 38.2044 -77.1744 10° North 435 501 18,500 -2,115 Descending Washington Center
Sun 09:19:38 PM 38.3069 -77.1556 North 424 488 16,400 -1,866 Descending Washington Center
Sun 09:20:36 PM 38.4139 -77.0967 23° Northeast 418 481 14,800 -1,983 Descending Washington Center
Sun 09:21:36 PM 38.4944 -77.0028 42° Northeast 393 452 12,500 -2,016 Descending Washington Center
Sun 09:22:38 PM 38.5747 -76.9089 42° Northeast 387 445 10,700 -1,200 Descending Washington Center
Sun 09:23:36 PM 38.6422 -76.8250 44° Northeast 353 406 10,100 -857 Descending Washington Center
Sun 09:24:37 PM 38.7036 -76.7461 45° Northeast 324 373 9,000 -1,140 Descending Washington Center
Sun 09:25:37 PM 38.7461 -76.6536 59° Northeast 308 354 7,800 -1,385 Descending Washington Center
Sun 09:26:34 PM 38.7833 -76.5500 65° Northeast 291 335 6,300 -1,282 Descending Potomac TRACON
Sun 09:27:34 PM 38.8500 -76.5167 21° North 274 315 5,300 -1,150 Descending Potomac TRACON
Sun 09:28:34 PM 38.9333 -76.5000 North 271 312 4,000 -650 Descending Potomac TRACON
Sun 09:29:34 PM 39.0000 -76.4833 11° North 238 274 4,000 -400 Level Potomac TRACON
Sun 09:30:34 PM 39.0333 -76.5167 322° Northwest 178 205 3,200 -810 Descending Potomac TRACON
Sun 09:31:40 PM 39.0667 -76.5667 311° West 174 200 2,300 -744 Descending Potomac TRACON
Sun 09:32:35 PM 39.1000 -76.6000 322° Northwest 149 171 1,700 -694 Descending Potomac TRACON
Sun 09:33:41 PM 39.1333 -76.6333 322° Northwest 126 145 900 -727 Descending Potomac TRACON
Sun 09:35:00 PM 39.1667 -76.6667 339° North  Level FlightAware Approximate
Sun 09:42:00 PM 39.1754 -76.6683 339° North  Level Estimated
Sun 09:43:00 PM 39.1754 -76.6683 339° North  Level Estimated
Sun 09:44:00 PM 39.1754 -76.6683 339° North  Level Estimated
Sun 09:45:00 PM 39.1754 -76.6683 339° North  Level Estimated
Sun 09:46:00 PM 39.1754 -76.6683 339° North  Level Estimated

Login

Don't have an account? Register now (free) for customized features, flight alerts, and more!